sensor_id;sensor_type;location;lat;lon;timestamp;P1;durP1;ratioP1;P2;durP2;ratioP2
17482;SDS011;8858;52.308;20.994;2023-12-20T00:00:52;12.17;;;10.73;;
17482;SDS011;8858;52.308;20.994;2023-12-20T00:03:22;12.00;;;10.80;;
17482;SDS011;8858;52.308;20.994;2023-12-20T00:05:51;11.93;;;10.80;;
17482;SDS011;8858;52.308;20.994;2023-12-20T00:08:22;12.40;;;11.20;;
17482;SDS011;8858;52.308;20.994;2023-12-20T00:10:50;11.53;;;10.37;;
17482;SDS011;8858;52.308;20.994;2023-12-20T00:13:19;12.13;;;10.97;;
17482;SDS011;8858;52.308;20.994;2023-12-20T00:15:50;12.03;;;10.83;;
17482;SDS011;8858;52.308;20.994;2023-12-20T00:18:20;11.50;;;10.30;;
17482;SDS011;8858;52.308;20.994;2023-12-20T00:20:49;11.63;;;10.47;;
17482;SDS011;8858;52.308;20.994;2023-12-20T00:23:17;12.13;;;10.93;;
17482;SDS011;8858;52.308;20.994;2023-12-20T00:25:47;11.17;;;10.07;;
17482;SDS011;8858;52.308;20.994;2023-12-20T00:28:18;11.77;;;9.80;;
17482;SDS011;8858;52.308;20.994;2023-12-20T00:30:47;11.43;;;10.07;;
17482;SDS011;8858;52.308;20.994;2023-12-20T00:33:15;10.13;;;9.23;;
17482;SDS011;8858;52.308;20.994;2023-12-20T00:35:43;11.33;;;10.23;;
17482;SDS011;8858;52.308;20.994;2023-12-20T00:38:13;11.50;;;10.33;;
17482;SDS011;8858;52.308;20.994;2023-12-20T00:40:41;10.90;;;9.87;;
17482;SDS011;8858;52.308;20.994;2023-12-20T00:43:11;11.30;;;10.10;;
17482;SDS011;8858;52.308;20.994;2023-12-20T00:45:40;11.20;;;10.00;;
17482;SDS011;8858;52.308;20.994;2023-12-20T00:48:08;11.00;;;9.90;;
17482;SDS011;8858;52.308;20.994;2023-12-20T00:50:37;11.70;;;9.97;;
17482;SDS011;8858;52.308;20.994;2023-12-20T00:53:06;11.83;;;10.60;;
17482;SDS011;8858;52.308;20.994;2023-12-20T00:55:35;11.47;;;10.37;;
17482;SDS011;8858;52.308;20.994;2023-12-20T00:58:04;11.30;;;10.20;;
17482;SDS011;8858;52.308;20.994;2023-12-20T01:00:34;11.87;;;10.73;;
17482;SDS011;8858;52.308;20.994;2023-12-20T01:03:03;11.40;;;10.20;;
17482;SDS011;8858;52.308;20.994;2023-12-20T01:05:32;11.87;;;10.63;;
17482;SDS011;8858;52.308;20.994;2023-12-20T01:08:01;12.30;;;11.00;;
17482;SDS011;8858;52.308;20.994;2023-12-20T01:10:30;12.37;;;11.00;;
17482;SDS011;8858;52.308;20.994;2023-12-20T01:13:03;13.40;;;10.70;;
17482;SDS011;8858;52.308;20.994;2023-12-20T01:15:31;12.43;;;11.13;;
17482;SDS011;8858;52.308;20.994;2023-12-20T01:18:01;12.73;;;10.90;;
17482;SDS011;8858;52.308;20.994;2023-12-20T01:20:29;12.00;;;10.80;;
17482;SDS011;8858;52.308;20.994;2023-12-20T01:22:58;11.03;;;9.93;;
17482;SDS011;8858;52.308;20.994;2023-12-20T01:25:29;12.90;;;10.23;;
17482;SDS011;8858;52.308;20.994;2023-12-20T01:27:57;11.07;;;9.97;;
17482;SDS011;8858;52.308;20.994;2023-12-20T01:30:26;11.10;;;10.00;;
17482;SDS011;8858;52.308;20.994;2023-12-20T01:32:54;11.30;;;10.20;;
17482;SDS011;8858;52.308;20.994;2023-12-20T01:35:27;11.33;;;10.23;;
17482;SDS011;8858;52.308;20.994;2023-12-20T01:37:58;11.43;;;10.33;;
17482;SDS011;8858;52.308;20.994;2023-12-20T01:40:27;11.27;;;9.97;;
17482;SDS011;8858;52.308;20.994;2023-12-20T01:42:59;12.03;;;10.90;;
17482;SDS011;8858;52.308;20.994;2023-12-20T01:45:28;12.67;;;11.37;;
17482;SDS011;8858;52.308;20.994;2023-12-20T01:47:57;11.60;;;10.40;;
17482;SDS011;8858;52.308;20.994;2023-12-20T01:50:28;11.80;;;10.57;;
17482;SDS011;8858;52.308;20.994;2023-12-20T01:53:02;11.60;;;9.83;;
17482;SDS011;8858;52.308;20.994;2023-12-20T01:55:34;10.67;;;9.53;;
17482;SDS011;8858;52.308;20.994;2023-12-20T01:58:05;11.53;;;10.40;;
17482;SDS011;8858;52.308;20.994;2023-12-20T02:00:33;16.07;;;11.00;;
17482;SDS011;8858;52.308;20.994;2023-12-20T02:03:03;11.50;;;10.40;;
17482;SDS011;8858;52.308;20.994;2023-12-20T02:05:40;11.83;;;10.30;;
17482;SDS011;8858;52.308;20.994;2023-12-20T02:08:08;12.27;;;10.97;;
17482;SDS011;8858;52.308;20.994;2023-12-20T02:10:37;11.27;;;10.07;;
17482;SDS011;8858;52.308;20.994;2023-12-20T02:13:31;10.90;;;9.80;;
17482;SDS011;8858;52.308;20.994;2023-12-20T02:16:24;10.47;;;9.47;;
17482;SDS011;8858;52.308;20.994;2023-12-20T02:18:53;10.37;;;9.23;;
17482;SDS011;8858;52.308;20.994;2023-12-20T02:21:25;10.70;;;9.70;;
17482;SDS011;8858;52.308;20.994;2023-12-20T02:23:59;11.43;;;9.70;;
17482;SDS011;8858;52.308;20.994;2023-12-20T02:26:28;11.07;;;9.43;;
17482;SDS011;8858;52.308;20.994;2023-12-20T02:28:57;10.17;;;9.20;;
17482;SDS011;8858;52.308;20.994;2023-12-20T02:31:27;13.00;;;9.30;;
17482;SDS011;8858;52.308;20.994;2023-12-20T02:33:55;9.77;;;8.77;;
17482;SDS011;8858;52.308;20.994;2023-12-20T02:36:24;9.40;;;8.50;;
17482;SDS011;8858;52.308;20.994;2023-12-20T02:38:56;9.83;;;8.60;;
17482;SDS011;8858;52.308;20.994;2023-12-20T02:41:25;8.90;;;8.00;;
17482;SDS011;8858;52.308;20.994;2023-12-20T02:43:53;9.77;;;8.43;;
17482;SDS011;8858;52.308;20.994;2023-12-20T02:46:22;9.03;;;8.13;;
17482;SDS011;8858;52.308;20.994;2023-12-20T02:48:52;9.10;;;8.20;;
17482;SDS011;8858;52.308;20.994;2023-12-20T02:51:23;9.17;;;7.53;;
17482;SDS011;8858;52.308;20.994;2023-12-20T02:53:52;8.63;;;7.30;;
17482;SDS011;8858;52.308;20.994;2023-12-20T02:56:21;7.33;;;6.60;;
17482;SDS011;8858;52.308;20.994;2023-12-20T02:58:49;6.87;;;6.23;;
17482;SDS011;8858;52.308;20.994;2023-12-20T03:01:18;6.83;;;6.23;;
17482;SDS011;8858;52.308;20.994;2023-12-20T03:03:47;7.43;;;6.37;;
17482;SDS011;8858;52.308;20.994;2023-12-20T03:06:16;8.10;;;6.57;;
17482;SDS011;8858;52.308;20.994;2023-12-20T03:08:45;7.17;;;5.90;;
17482;SDS011;8858;52.308;20.994;2023-12-20T03:11:15;6.97;;;6.27;;
17482;SDS011;8858;52.308;20.994;2023-12-20T03:13:45;7.33;;;6.63;;
17482;SDS011;8858;52.308;20.994;2023-12-20T03:16:13;9.23;;;6.67;;
17482;SDS011;8858;52.308;20.994;2023-12-20T03:18:43;6.97;;;6.37;;
17482;SDS011;8858;52.308;20.994;2023-12-20T03:21:12;7.03;;;6.33;;
17482;SDS011;8858;52.308;20.994;2023-12-20T03:23:41;9.37;;;6.20;;
17482;SDS011;8858;52.308;20.994;2023-12-20T03:26:09;7.53;;;6.73;;
17482;SDS011;8858;52.308;20.994;2023-12-20T03:28:39;7.00;;;6.20;;
17482;SDS011;8858;52.308;20.994;2023-12-20T03:31:09;7.33;;;6.37;;
17482;SDS011;8858;52.308;20.994;2023-12-20T03:33:38;6.87;;;6.27;;
17482;SDS011;8858;52.308;20.994;2023-12-20T03:36:07;10.73;;;6.80;;
17482;SDS011;8858;52.308;20.994;2023-12-20T03:38:36;7.93;;;6.97;;
17482;SDS011;8858;52.308;20.994;2023-12-20T03:41:06;7.60;;;6.63;;
17482;SDS011;8858;52.308;20.994;2023-12-20T03:43:35;7.60;;;6.83;;
17482;SDS011;8858;52.308;20.994;2023-12-20T03:46:06;7.63;;;6.93;;
17482;SDS011;8858;52.308;20.994;2023-12-20T03:48:40;7.43;;;6.73;;
17482;SDS011;8858;52.308;20.994;2023-12-20T03:51:08;7.80;;;7.00;;
17482;SDS011;8858;52.308;20.994;2023-12-20T03:53:36;8.57;;;7.00;;
17482;SDS011;8858;52.308;20.994;2023-12-20T03:56:06;8.43;;;7.47;;
17482;SDS011;8858;52.308;20.994;2023-12-20T03:58:34;8.50;;;7.70;;
17482;SDS011;8858;52.308;20.994;2023-12-20T04:01:03;7.77;;;7.07;;
17482;SDS011;8858;52.308;20.994;2023-12-20T04:03:38;8.10;;;7.30;;
17482;SDS011;8858;52.308;20.994;2023-12-20T04:06:07;8.23;;;7.53;;
17482;SDS011;8858;52.308;20.994;2023-12-20T04:08:34;9.00;;;7.50;;
17482;SDS011;8858;52.308;20.994;2023-12-20T04:11:02;8.13;;;7.43;;
17482;SDS011;8858;52.308;20.994;2023-12-20T04:13:31;8.67;;;7.80;;
17482;SDS011;8858;52.308;20.994;2023-12-20T04:16:02;8.73;;;7.93;;
17482;SDS011;8858;52.308;20.994;2023-12-20T04:18:32;8.37;;;7.67;;
17482;SDS011;8858;52.308;20.994;2023-12-20T04:21:01;10.53;;;8.60;;
17482;SDS011;8858;52.308;20.994;2023-12-20T04:23:29;8.90;;;7.90;;
17482;SDS011;8858;52.308;20.994;2023-12-20T04:26:00;8.43;;;7.67;;
17482;SDS011;8858;52.308;20.994;2023-12-20T04:28:30;9.10;;;8.30;;
17482;SDS011;8858;52.308;20.994;2023-12-20T04:30:58;9.33;;;8.37;;
17482;SDS011;8858;52.308;20.994;2023-12-20T04:33:27;10.23;;;7.30;;
17482;SDS011;8858;52.308;20.994;2023-12-20T04:35:56;8.77;;;7.70;;
17482;SDS011;8858;52.308;20.994;2023-12-20T04:38:27;8.20;;;7.50;;
17482;SDS011;8858;52.308;20.994;2023-12-20T04:40:59;10.47;;;7.67;;
17482;SDS011;8858;52.308;20.994;2023-12-20T04:43:27;8.53;;;7.73;;
17482;SDS011;8858;52.308;20.994;2023-12-20T04:45:57;9.40;;;7.73;;
17482;SDS011;8858;52.308;20.994;2023-12-20T04:48:25;11.90;;;7.70;;
17482;SDS011;8858;52.308;20.994;2023-12-20T04:50:54;9.07;;;6.83;;
17482;SDS011;8858;52.308;20.994;2023-12-20T04:53:27;8.33;;;7.53;;
17482;SDS011;8858;52.308;20.994;2023-12-20T04:55:56;8.20;;;7.40;;
17482;SDS011;8858;52.308;20.994;2023-12-20T04:58:24;8.43;;;6.97;;
17482;SDS011;8858;52.308;20.994;2023-12-20T05:00:54;7.73;;;7.07;;
17482;SDS011;8858;52.308;20.994;2023-12-20T05:03:24;8.90;;;7.63;;
17482;SDS011;8858;52.308;20.994;2023-12-20T05:05:53;8.90;;;8.00;;
17482;SDS011;8858;52.308;20.994;2023-12-20T05:08:22;8.43;;;7.70;;
17482;SDS011;8858;52.308;20.994;2023-12-20T05:10:54;8.67;;;7.67;;
17482;SDS011;8858;52.308;20.994;2023-12-20T05:13:23;8.73;;;7.67;;
17482;SDS011;8858;52.308;20.994;2023-12-20T05:16:11;7.70;;;7.00;;
17482;SDS011;8858;52.308;20.994;2023-12-20T05:18:41;8.10;;;7.30;;
17482;SDS011;8858;52.308;20.994;2023-12-20T05:21:09;8.80;;;7.90;;
17482;SDS011;8858;52.308;20.994;2023-12-20T05:23:38;8.60;;;7.80;;
17482;SDS011;8858;52.308;20.994;2023-12-20T05:26:11;8.80;;;8.03;;
17482;SDS011;8858;52.308;20.994;2023-12-20T05:28:41;9.27;;;8.37;;
17482;SDS011;8858;52.308;20.994;2023-12-20T05:31:09;9.53;;;8.53;;
17482;SDS011;8858;52.308;20.994;2023-12-20T05:33:38;10.07;;;8.90;;
17482;SDS011;8858;52.308;20.994;2023-12-20T05:36:07;9.73;;;8.83;;
17482;SDS011;8858;52.308;20.994;2023-12-20T05:38:38;10.23;;;9.10;;
17482;SDS011;8858;52.308;20.994;2023-12-20T05:41:09;10.30;;;9.30;;
17482;SDS011;8858;52.308;20.994;2023-12-20T05:43:39;9.70;;;8.90;;
17482;SDS011;8858;52.308;20.994;2023-12-20T05:46:07;10.07;;;9.17;;
17482;SDS011;8858;52.308;20.994;2023-12-20T05:48:38;10.20;;;9.23;;
17482;SDS011;8858;52.308;20.994;2023-12-20T05:51:06;9.93;;;9.03;;
17482;SDS011;8858;52.308;20.994;2023-12-20T05:53:37;10.50;;;9.53;;
17482;SDS011;8858;52.308;20.994;2023-12-20T05:56:05;9.90;;;9.00;;
17482;SDS011;8858;52.308;20.994;2023-12-20T05:58:33;10.93;;;9.87;;
17482;SDS011;8858;52.308;20.994;2023-12-20T06:01:04;10.90;;;9.90;;
17482;SDS011;8858;52.308;20.994;2023-12-20T06:03:40;9.97;;;9.07;;
17482;SDS011;8858;52.308;20.994;2023-12-20T06:06:09;10.53;;;9.53;;
17482;SDS011;8858;52.308;20.994;2023-12-20T06:08:42;10.33;;;8.70;;
17482;SDS011;8858;52.308;20.994;2023-12-20T06:11:13;9.73;;;8.83;;
17482;SDS011;8858;52.308;20.994;2023-12-20T06:13:41;11.50;;;10.40;;
17482;SDS011;8858;52.308;20.994;2023-12-20T06:16:11;9.47;;;8.70;;
17482;SDS011;8858;52.308;20.994;2023-12-20T06:18:41;9.53;;;8.67;;
17482;SDS011;8858;52.308;20.994;2023-12-20T06:21:12;10.03;;;9.03;;
17482;SDS011;8858;52.308;20.994;2023-12-20T06:23:42;9.57;;;8.77;;
17482;SDS011;8858;52.308;20.994;2023-12-20T06:26:10;9.63;;;8.63;;
17482;SDS011;8858;52.308;20.994;2023-12-20T06:28:38;9.40;;;8.50;;
17482;SDS011;8858;52.308;20.994;2023-12-20T06:31:08;9.00;;;8.27;;
17482;SDS011;8858;52.308;20.994;2023-12-20T06:33:37;8.83;;;8.13;;
17482;SDS011;8858;52.308;20.994;2023-12-20T06:36:11;9.93;;;9.03;;
17482;SDS011;8858;52.308;20.994;2023-12-20T06:38:40;8.43;;;7.73;;
17482;SDS011;8858;52.308;20.994;2023-12-20T06:41:10;9.33;;;8.43;;
17482;SDS011;8858;52.308;20.994;2023-12-20T06:43:40;9.77;;;8.87;;
17482;SDS011;8858;52.308;20.994;2023-12-20T06:46:16;9.20;;;8.30;;
17482;SDS011;8858;52.308;20.994;2023-12-20T06:48:46;9.80;;;8.57;;
17482;SDS011;8858;52.308;20.994;2023-12-20T06:51:14;9.47;;;8.60;;
17482;SDS011;8858;52.308;20.994;2023-12-20T06:53:48;9.03;;;8.20;;
17482;SDS011;8858;52.308;20.994;2023-12-20T06:56:16;8.50;;;7.73;;
17482;SDS011;8858;52.308;20.994;2023-12-20T06:58:46;9.00;;;8.20;;
17482;SDS011;8858;52.308;20.994;2023-12-20T07:01:15;8.03;;;7.33;;
17482;SDS011;8858;52.308;20.994;2023-12-20T07:03:49;9.53;;;8.70;;
17482;SDS011;8858;52.308;20.994;2023-12-20T07:06:18;8.47;;;7.73;;
17482;SDS011;8858;52.308;20.994;2023-12-20T07:08:49;8.57;;;7.87;;
17482;SDS011;8858;52.308;20.994;2023-12-20T07:11:17;7.47;;;6.87;;
17482;SDS011;8858;52.308;20.994;2023-12-20T07:13:45;8.03;;;7.33;;
17482;SDS011;8858;52.308;20.994;2023-12-20T07:16:18;8.20;;;6.83;;
17482;SDS011;8858;52.308;20.994;2023-12-20T07:18:46;9.17;;;7.60;;
17482;SDS011;8858;52.308;20.994;2023-12-20T07:21:16;7.73;;;7.13;;
17482;SDS011;8858;52.308;20.994;2023-12-20T07:23:45;10.20;;;7.67;;
17482;SDS011;8858;52.308;20.994;2023-12-20T07:26:13;8.30;;;7.60;;
17482;SDS011;8858;52.308;20.994;2023-12-20T07:28:47;9.17;;;7.90;;
17482;SDS011;8858;52.308;20.994;2023-12-20T07:31:15;8.50;;;7.70;;
17482;SDS011;8858;52.308;20.994;2023-12-20T07:33:43;8.77;;;7.83;;
17482;SDS011;8858;52.308;20.994;2023-12-20T07:36:12;11.43;;;10.33;;
17482;SDS011;8858;52.308;20.994;2023-12-20T07:38:42;12.40;;;11.30;;
17482;SDS011;8858;52.308;20.994;2023-12-20T07:41:10;10.87;;;9.77;;
17482;SDS011;8858;52.308;20.994;2023-12-20T07:43:39;11.27;;;10.13;;
17482;SDS011;8858;52.308;20.994;2023-12-20T07:46:09;10.07;;;9.17;;
17482;SDS011;8858;52.308;20.994;2023-12-20T07:48:37;9.07;;;8.27;;
17482;SDS011;8858;52.308;20.994;2023-12-20T07:51:09;9.70;;;8.80;;
17482;SDS011;8858;52.308;20.994;2023-12-20T07:53:38;9.73;;;8.83;;
17482;SDS011;8858;52.308;20.994;2023-12-20T07:56:16;10.20;;;9.20;;
17482;SDS011;8858;52.308;20.994;2023-12-20T07:58:46;10.60;;;9.60;;
17482;SDS011;8858;52.308;20.994;2023-12-20T08:01:19;10.70;;;9.60;;
17482;SDS011;8858;52.308;20.994;2023-12-20T08:03:49;11.20;;;10.03;;
17482;SDS011;8858;52.308;20.994;2023-12-20T08:06:18;10.93;;;9.93;;
17482;SDS011;8858;52.308;20.994;2023-12-20T08:08:47;11.50;;;9.87;;
17482;SDS011;8858;52.308;20.994;2023-12-20T08:11:28;10.50;;;9.40;;
17482;SDS011;8858;52.308;20.994;2023-12-20T08:13:57;11.17;;;10.07;;
17482;SDS011;8858;52.308;20.994;2023-12-20T08:16:25;10.10;;;9.20;;
17482;SDS011;8858;52.308;20.994;2023-12-20T08:18:54;10.03;;;9.13;;
17482;SDS011;8858;52.308;20.994;2023-12-20T08:21:23;8.97;;;8.27;;
17482;SDS011;8858;52.308;20.994;2023-12-20T08:23:54;9.37;;;8.47;;
17482;SDS011;8858;52.308;20.994;2023-12-20T08:26:22;8.80;;;8.00;;
17482;SDS011;8858;52.308;20.994;2023-12-20T08:28:52;12.67;;;11.23;;
17482;SDS011;8858;52.308;20.994;2023-12-20T08:31:23;8.67;;;7.87;;
17482;SDS011;8858;52.308;20.994;2023-12-20T08:33:52;8.53;;;7.23;;
17482;SDS011;8858;52.308;20.994;2023-12-20T08:36:23;8.57;;;7.83;;
17482;SDS011;8858;52.308;20.994;2023-12-20T08:38:51;7.77;;;6.97;;
17482;SDS011;8858;52.308;20.994;2023-12-20T08:41:20;8.60;;;6.73;;
17482;SDS011;8858;52.308;20.994;2023-12-20T08:43:53;7.53;;;6.93;;
17482;SDS011;8858;52.308;20.994;2023-12-20T08:46:26;7.93;;;7.17;;
17482;SDS011;8858;52.308;20.994;2023-12-20T08:48:54;7.53;;;6.87;;
17482;SDS011;8858;52.308;20.994;2023-12-20T08:51:24;7.13;;;6.53;;
17482;SDS011;8858;52.308;20.994;2023-12-20T08:53:52;6.70;;;6.10;;
17482;SDS011;8858;52.308;20.994;2023-12-20T08:56:22;6.43;;;5.87;;
17482;SDS011;8858;52.308;20.994;2023-12-20T08:58:50;7.07;;;6.37;;
17482;SDS011;8858;52.308;20.994;2023-12-20T09:01:20;6.53;;;5.93;;
17482;SDS011;8858;52.308;20.994;2023-12-20T09:03:48;6.33;;;5.83;;
17482;SDS011;8858;52.308;20.994;2023-12-20T09:06:17;6.30;;;5.80;;
17482;SDS011;8858;52.308;20.994;2023-12-20T09:08:48;6.23;;;5.63;;
17482;SDS011;8858;52.308;20.994;2023-12-20T09:11:16;6.23;;;5.73;;
17482;SDS011;8858;52.308;20.994;2023-12-20T09:13:48;5.60;;;5.20;;
17482;SDS011;8858;52.308;20.994;2023-12-20T09:16:18;6.50;;;5.97;;
17482;SDS011;8858;52.308;20.994;2023-12-20T09:18:46;6.77;;;5.93;;
17482;SDS011;8858;52.308;20.994;2023-12-20T09:21:16;6.53;;;5.83;;
17482;SDS011;8858;52.308;20.994;2023-12-20T09:23:44;6.53;;;6.00;;
17482;SDS011;8858;52.308;20.994;2023-12-20T09:26:12;6.50;;;5.90;;
17482;SDS011;8858;52.308;20.994;2023-12-20T09:28:40;9.27;;;6.57;;
17482;SDS011;8858;52.308;20.994;2023-12-20T09:31:09;7.00;;;6.40;;
17482;SDS011;8858;52.308;20.994;2023-12-20T09:33:40;7.27;;;6.40;;
17482;SDS011;8858;52.308;20.994;2023-12-20T09:36:09;6.57;;;6.00;;
17482;SDS011;8858;52.308;20.994;2023-12-20T09:38:37;7.37;;;6.10;;
17482;SDS011;8858;52.308;20.994;2023-12-20T09:41:06;7.23;;;6.53;;
17482;SDS011;8858;52.308;20.994;2023-12-20T09:43:35;6.37;;;5.83;;
17482;SDS011;8858;52.308;20.994;2023-12-20T09:46:06;6.33;;;5.83;;
17482;SDS011;8858;52.308;20.994;2023-12-20T09:48:36;6.77;;;6.17;;
17482;SDS011;8858;52.308;20.994;2023-12-20T09:51:06;6.87;;;6.27;;
17482;SDS011;8858;52.308;20.994;2023-12-20T09:53:34;6.53;;;5.97;;
17482;SDS011;8858;52.308;20.994;2023-12-20T09:56:07;7.07;;;6.47;;
17482;SDS011;8858;52.308;20.994;2023-12-20T09:58:36;7.43;;;6.63;;
17482;SDS011;8858;52.308;20.994;2023-12-20T10:01:06;6.50;;;5.90;;
17482;SDS011;8858;52.308;20.994;2023-12-20T10:03:35;6.00;;;5.50;;
17482;SDS011;8858;52.308;20.994;2023-12-20T10:06:09;7.70;;;6.90;;
17482;SDS011;8858;52.308;20.994;2023-12-20T10:08:38;6.37;;;5.87;;
17482;SDS011;8858;52.308;20.994;2023-12-20T10:11:07;6.47;;;5.97;;
17482;SDS011;8858;52.308;20.994;2023-12-20T10:13:39;8.40;;;7.60;;
17482;SDS011;8858;52.308;20.994;2023-12-20T10:16:11;7.40;;;6.80;;
17482;SDS011;8858;52.308;20.994;2023-12-20T10:18:40;7.73;;;6.87;;
17482;SDS011;8858;52.308;20.994;2023-12-20T10:21:10;6.73;;;6.23;;
17482;SDS011;8858;52.308;20.994;2023-12-20T10:23:38;7.00;;;6.40;;
17482;SDS011;8858;52.308;20.994;2023-12-20T10:26:08;7.67;;;6.87;;
17482;SDS011;8858;52.308;20.994;2023-12-20T10:28:40;7.27;;;6.60;;
17482;SDS011;8858;52.308;20.994;2023-12-20T10:31:08;7.30;;;6.60;;
17482;SDS011;8858;52.308;20.994;2023-12-20T10:33:37;7.83;;;7.03;;
17482;SDS011;8858;52.308;20.994;2023-12-20T10:36:10;7.03;;;6.40;;
17482;SDS011;8858;52.308;20.994;2023-12-20T10:38:39;7.57;;;6.87;;
17482;SDS011;8858;52.308;20.994;2023-12-20T10:41:13;8.33;;;7.53;;
17482;SDS011;8858;52.308;20.994;2023-12-20T10:43:44;7.43;;;6.83;;
17482;SDS011;8858;52.308;20.994;2023-12-20T10:46:21;17.60;;;14.87;;
17482;SDS011;8858;52.308;20.994;2023-12-20T10:48:50;10.80;;;9.67;;
17482;SDS011;8858;52.308;20.994;2023-12-20T10:51:25;7.37;;;6.73;;
17482;SDS011;8858;52.308;20.994;2023-12-20T10:53:54;7.97;;;7.17;;
17482;SDS011;8858;52.308;20.994;2023-12-20T10:56:23;9.37;;;7.60;;
17482;SDS011;8858;52.308;20.994;2023-12-20T10:58:52;7.80;;;6.97;;
17482;SDS011;8858;52.308;20.994;2023-12-20T11:01:23;8.13;;;7.33;;
17482;SDS011;8858;52.308;20.994;2023-12-20T11:03:53;7.90;;;7.10;;
17482;SDS011;8858;52.308;20.994;2023-12-20T11:06:29;7.80;;;6.97;;
17482;SDS011;8858;52.308;20.994;2023-12-20T11:09:08;7.90;;;7.20;;
17482;SDS011;8858;52.308;20.994;2023-12-20T11:11:52;7.73;;;6.83;;
17482;SDS011;8858;52.308;20.994;2023-12-20T11:14:31;7.70;;;7.00;;
17482;SDS011;8858;52.308;20.994;2023-12-20T11:17:10;8.90;;;8.00;;
17482;SDS011;8858;52.308;20.994;2023-12-20T11:19:43;7.27;;;6.67;;
17482;SDS011;8858;52.308;20.994;2023-12-20T11:22:34;9.33;;;7.67;;
17482;SDS011;8858;52.308;20.994;2023-12-20T11:25:08;8.07;;;6.53;;
17482;SDS011;8858;52.308;20.994;2023-12-20T11:27:40;9.40;;;7.43;;
17482;SDS011;8858;52.308;20.994;2023-12-20T11:30:15;8.37;;;7.03;;
17482;SDS011;8858;52.308;20.994;2023-12-20T11:32:45;9.33;;;7.33;;
17482;SDS011;8858;52.308;20.994;2023-12-20T11:35:17;7.53;;;6.83;;
17482;SDS011;8858;52.308;20.994;2023-12-20T11:37:49;7.03;;;6.33;;
17482;SDS011;8858;52.308;20.994;2023-12-20T11:40:18;7.63;;;6.63;;
17482;SDS011;8858;52.308;20.994;2023-12-20T11:42:49;7.07;;;6.33;;
17482;SDS011;8858;52.308;20.994;2023-12-20T11:45:21;7.37;;;6.67;;
17482;SDS011;8858;52.308;20.994;2023-12-20T11:47:58;7.30;;;6.60;;
17482;SDS011;8858;52.308;20.994;2023-12-20T11:50:26;7.63;;;6.93;;
17482;SDS011;8858;52.308;20.994;2023-12-20T11:52:56;9.07;;;7.07;;
17482;SDS011;8858;52.308;20.994;2023-12-20T11:55:24;8.73;;;7.33;;
17482;SDS011;8858;52.308;20.994;2023-12-20T11:57:52;8.93;;;6.80;;
17482;SDS011;8858;52.308;20.994;2023-12-20T12:00:28;10.03;;;9.03;;
17482;SDS011;8858;52.308;20.994;2023-12-20T12:02:57;8.00;;;7.20;;
17482;SDS011;8858;52.308;20.994;2023-12-20T12:05:26;7.33;;;6.70;;
17482;SDS011;8858;52.308;20.994;2023-12-20T12:07:55;7.57;;;6.60;;
17482;SDS011;8858;52.308;20.994;2023-12-20T12:10:24;7.20;;;6.43;;
17482;SDS011;8858;52.308;20.994;2023-12-20T12:12:56;7.30;;;6.07;;
17482;SDS011;8858;52.308;20.994;2023-12-20T12:15:24;10.57;;;6.83;;
17482;SDS011;8858;52.308;20.994;2023-12-20T12:17:53;6.83;;;6.13;;
17482;SDS011;8858;52.308;20.994;2023-12-20T12:20:22;6.77;;;5.63;;
17482;SDS011;8858;52.308;20.994;2023-12-20T12:22:59;5.30;;;4.80;;
17482;SDS011;8858;52.308;20.994;2023-12-20T12:25:28;6.07;;;4.90;;
17482;SDS011;8858;52.308;20.994;2023-12-20T12:28:01;7.47;;;4.20;;
17482;SDS011;8858;52.308;20.994;2023-12-20T12:30:32;5.10;;;4.20;;
17482;SDS011;8858;52.308;20.994;2023-12-20T12:33:08;4.17;;;3.77;;
17482;SDS011;8858;52.308;20.994;2023-12-20T12:35:36;4.50;;;4.20;;
17482;SDS011;8858;52.308;20.994;2023-12-20T12:38:07;5.60;;;5.10;;
17482;SDS011;8858;52.308;20.994;2023-12-20T12:40:36;7.53;;;5.33;;
17482;SDS011;8858;52.308;20.994;2023-12-20T12:43:05;6.77;;;6.03;;
17482;SDS011;8858;52.308;20.994;2023-12-20T12:45:34;7.97;;;7.07;;
17482;SDS011;8858;52.308;20.994;2023-12-20T12:48:03;7.90;;;6.87;;
17482;SDS011;8858;52.308;20.994;2023-12-20T12:50:32;8.40;;;7.00;;
17482;SDS011;8858;52.308;20.994;2023-12-20T12:53:00;8.07;;;7.10;;
17482;SDS011;8858;52.308;20.994;2023-12-20T12:55:34;7.63;;;6.93;;
17482;SDS011;8858;52.308;20.994;2023-12-20T12:58:06;7.93;;;7.17;;
17482;SDS011;8858;52.308;20.994;2023-12-20T13:00:34;7.87;;;7.10;;
17482;SDS011;8858;52.308;20.994;2023-12-20T13:03:04;8.43;;;7.63;;
17482;SDS011;8858;52.308;20.994;2023-12-20T13:05:32;8.03;;;7.23;;
17482;SDS011;8858;52.308;20.994;2023-12-20T13:08:06;8.50;;;7.13;;
17482;SDS011;8858;52.308;20.994;2023-12-20T13:10:36;7.80;;;7.00;;
17482;SDS011;8858;52.308;20.994;2023-12-20T13:13:08;7.10;;;6.47;;
17482;SDS011;8858;52.308;20.994;2023-12-20T13:15:36;7.70;;;6.90;;
17482;SDS011;8858;52.308;20.994;2023-12-20T13:18:28;10.93;;;7.03;;
17482;SDS011;8858;52.308;20.994;2023-12-20T13:20:57;8.70;;;7.90;;
17482;SDS011;8858;52.308;20.994;2023-12-20T13:23:25;8.83;;;8.00;;
17482;SDS011;8858;52.308;20.994;2023-12-20T13:25:55;9.03;;;8.23;;
17482;SDS011;8858;52.308;20.994;2023-12-20T13:28:23;9.30;;;8.33;;
17482;SDS011;8858;52.308;20.994;2023-12-20T13:30:52;10.50;;;8.30;;
17482;SDS011;8858;52.308;20.994;2023-12-20T13:33:21;12.77;;;8.80;;
17482;SDS011;8858;52.308;20.994;2023-12-20T13:35:52;8.77;;;7.97;;
17482;SDS011;8858;52.308;20.994;2023-12-20T13:38:23;10.53;;;8.60;;
17482;SDS011;8858;52.308;20.994;2023-12-20T13:40:54;10.13;;;7.90;;
17482;SDS011;8858;52.308;20.994;2023-12-20T13:43:24;8.97;;;7.97;;
17482;SDS011;8858;52.308;20.994;2023-12-20T13:45:53;8.50;;;7.70;;
17482;SDS011;8858;52.308;20.994;2023-12-20T13:48:21;9.47;;;8.57;;
17482;SDS011;8858;52.308;20.994;2023-12-20T13:50:50;11.03;;;8.33;;
17482;SDS011;8858;52.308;20.994;2023-12-20T13:53:18;9.50;;;8.50;;
17482;SDS011;8858;52.308;20.994;2023-12-20T13:55:47;9.00;;;7.70;;
17482;SDS011;8858;52.308;20.994;2023-12-20T13:58:18;15.57;;;11.50;;
17482;SDS011;8858;52.308;20.994;2023-12-20T14:00:47;14.67;;;12.87;;
17482;SDS011;8858;52.308;20.994;2023-12-20T14:03:15;13.23;;;10.20;;
17482;SDS011;8858;52.308;20.994;2023-12-20T14:05:47;11.87;;;8.63;;
17482;SDS011;8858;52.308;20.994;2023-12-20T14:08:16;9.67;;;8.67;;
17482;SDS011;8858;52.308;20.994;2023-12-20T14:10:45;9.53;;;8.53;;
17482;SDS011;8858;52.308;20.994;2023-12-20T14:13:18;14.27;;;10.30;;
17482;SDS011;8858;52.308;20.994;2023-12-20T14:15:47;12.20;;;9.97;;
17482;SDS011;8858;52.308;20.994;2023-12-20T14:18:16;13.03;;;9.90;;
17482;SDS011;8858;52.308;20.994;2023-12-20T14:20:45;11.67;;;9.57;;
17482;SDS011;8858;52.308;20.994;2023-12-20T14:23:14;10.90;;;9.23;;
17482;SDS011;8858;52.308;20.994;2023-12-20T14:25:43;10.53;;;9.10;;
17482;SDS011;8858;52.308;20.994;2023-12-20T14:28:20;11.47;;;9.20;;
17482;SDS011;8858;52.308;20.994;2023-12-20T14:30:50;10.67;;;8.40;;
17482;SDS011;8858;52.308;20.994;2023-12-20T14:33:19;10.27;;;7.33;;
17482;SDS011;8858;52.308;20.994;2023-12-20T14:35:51;8.57;;;7.17;;
17482;SDS011;8858;52.308;20.994;2023-12-20T14:38:20;8.00;;;6.67;;
17482;SDS011;8858;52.308;20.994;2023-12-20T14:40:49;8.80;;;5.20;;
17482;SDS011;8858;52.308;20.994;2023-12-20T14:43:21;7.80;;;5.17;;
17482;SDS011;8858;52.308;20.994;2023-12-20T14:45:50;6.17;;;5.03;;
17482;SDS011;8858;52.308;20.994;2023-12-20T14:48:19;8.03;;;5.13;;
17482;SDS011;8858;52.308;20.994;2023-12-20T14:50:47;7.30;;;4.90;;
17482;SDS011;8858;52.308;20.994;2023-12-20T14:53:17;6.47;;;4.50;;
17482;SDS011;8858;52.308;20.994;2023-12-20T14:55:49;6.93;;;5.70;;
17482;SDS011;8858;52.308;20.994;2023-12-20T14:58:22;5.53;;;4.80;;